Внуково

Карта отелей и гостиниц, располагающихся рядом с аэропортом Внуково :

Внуково
Москва
Москва 55° 36' 0" N, 37° 16' 23.9988" E
Код аэродрома ИКАО
UUWW
Код аэродрома RU
УУВВ
Координаты
N55.60000° E037.27333°
Превышение над уровнем моря
209
Основная полоса
06/24
Курс магнитный
057,5/237,5
Длина основной ВПП
3507
Ширина основной ВПП
60
Покрытие основной ВПП
Твёрдое
Освещение ВПП
Постоянное
Тип: 
Аэродром
Класс аэродрома: 
Международный
Принадлежность: 
ГА
Статус: 
Действующий
Сайт: 
http://vnukovo.ru/
Страна: 
Россия
Регион: 
Москва
Город: 
Москва
Дополнительная информация: 
Оператор: ОАО «Международный аэропорт «Внуково». Аэродромный комплекс Внуково располагает двумя полностью реконструированными ИВПП, пропускная способность которых составляет до 60 операций в час. Аэродром сертифицирован для приема ВС всех типов, включая такие, как Airbus 380 и Boeing 747 в любых метеоусловиях.
Погода: 

Авиационная погода в Москва - Внуково

Погода METAR: 
UUWW 291030Z 21005MPS 9999 BKN031CB 13/06 Q1011 R24/290050 TEMPO 22010G17MPS 2100 -TSRA BKN020CB
Время наблюдения
2022-05-29T10:30:00Z
Температура C
13.0
Точка росы
6.0
Направление ветра
210
Скорость ветра (узлы)
10
Метео видимость
6.21
Облачность
BKN
Нижняя граница облачности (футы)
3100
Явления погоды
Условия полета
VFR
Аэропорт подробнее: 
BKN – значительная (рассеянная, разорванная) облачность;


Найти трансфер

С помощью этой формы Вы можете найти трансфер из аэропорта Внуково в город, аэропорт или вокзал:

Погода в аэропортах:

Авиационная погода в Нижнем Новгороде

Регион: 
Погода METAR: 
UWGG 291030Z 22007MPS 9999 TS BKN040CB 16/05 Q1010 R18L/090070 NOSIG
Время наблюдения
2022-05-29T10:30:00Z
Температура C
16.0
Точка росы
5.0
Направление ветра
220
Скорость ветра (узлы)
14
Метео видимость
6.21
Облачность
BKN
Нижняя граница облачности (футы)
4000
Явления погоды
TS
Условия полета
VFR
Аэропорт подробнее: 
BKN – значительная (рассеянная, разорванная) облачность;

Авиационная погода в Миккели

Регион: 
Погода METAR: 
EFMI 291020Z AUTO 19006KT 160V230 9999 -SHRA //////CB 13/10 Q1004
Время наблюдения
2022-05-29T10:20:00Z
Температура C
13.0
Точка росы
10.0
Направление ветра
190
Скорость ветра (узлы)
6
Метео видимость
6.21
Облачность
Нижняя граница облачности (футы)
Явления погоды
-SHRA
Условия полета
-SHRA - слабый ливневой дождь;

Авиационная погода в Кадале

Регион: 
Погода METAR: 
UIAA 291030Z 29005MPS 9999 -SHRA SCT040CB 08/03 Q1002 R29/70D NOSIG RMK QFE693/0924
Время наблюдения
2022-05-29T10:30:00Z
Температура C
8.0
Точка росы
3.0
Направление ветра
290
Скорость ветра (узлы)
10
Метео видимость
6.21
Облачность
SCT
Нижняя граница облачности (футы)
4000
Явления погоды
-SHRA
Условия полета
VFR
Аэропорт подробнее: 
SCT – разбросанная отдельная облачность;
-SHRA - слабый ливневой дождь;

Авиационная погода в Ханты-Мансийске

Регион: 
Погода METAR: 
USHH 291030Z 24009G15MPS 7000 -TSRA SCT036CB 12/12 Q1005 R24/290055 TEMPO VRB20MPS 1000 TSRA SQ BKN010CB
Время наблюдения
2022-05-29T10:30:00Z
Температура C
12.0
Точка росы
12.0
Направление ветра
240
Скорость ветра (узлы)
17
Метео видимость
4.35
Облачность
SCT
Нижняя граница облачности (футы)
3600
Явления погоды
-TSRA
Условия полета
MVFR
Аэропорт подробнее: 
SCT – разбросанная отдельная облачность;
TSRA - гроза с дождём;